Iowa City, IA

5:13 AM CDT on October 25, 2014 (GMT -0500)
Village Green - East Side | Change Station
CLOSE
Current Station
Personal Weather Station
Location: Iowa City, IA
Elevation: 750 ft
Nearby Weather Stations
Active Advisory: Dense Fog Advisory

Elev 750 ft 41.65 °N, 91.49 °W | Updated 15 seconds ago

Fog
Fog
51.4 °F
Feels Like 51.4 °F
N
0.0
Wind Variable Wind from SSE
Gusts 0.0 mph

Today
High -- | Low -- °F
--% Chance of Precip.
Yesterday
High -- | Low -- °F
Precip. -- in
7:29 AM 6:09 PM
New Moon, 2% visible
Pressure 29.97 in
Visibility 0.2 miles
Clouds
Dew Point 51 °F
Humidity 98%
Rainfall 0.00 in
Snow Depth Not available.
UV Not available.
Pollen 1.10 out of 12
Air Quality Not available.
Flu Activity Sporadic
METAR KIOW 250852Z AUTO 25003KT 1/4SM FG VV002 11/11 A2997 RMK AO2 SLP147 T01060106 50002

More Conditions Fewer Conditions

Pressure 29.97 in
Visibility 0.2 miles
Clouds
Dew Point 51 °F
Humidity 98%
Rainfall 0.00 in
Snow Depth Not available.
UV Not available.
Pollen 1.10 out of 12
Air Quality Not available.
Flu Activity Sporadic
METAR KIOW 250852Z AUTO 25003KT 1/4SM FG VV002 11/11 A2997 RMK AO2 SLP147 T01060106 50002

More Conditions Fewer Conditions

10-Day Weather Forecast

Almanac

Astronomy

Oct. 25, 2014 Rise Set
Actual Time 7:29 AM CDT 6:09 PM CDT
Civil Twilight 7:01 AM CDT 6:38 PM CDT
Nautical Twilight 6:28 AM CDT 7:10 PM CDT
Astronomical Twilight 5:56 AM CDT 7:42 PM CDT
Moon 9:09 AM CDT 7:32 PM CDT
Length of Visible Light 11h 37m
Length of Day
10h 40m
Tomorrow will be 2m 34s shorter.
New Moon, 2% of the Moon is Illuminated
Today
New Moon
Oct 30
First Quarter
Nov 6
Full
Nov 14
Last Quarter
Nov 22
New

Today's Extremes

State Highs State Lows

Community

WunderPhotos

Upload Photos

1,764,796 photos uploaded!

Nearby

Snow Depth

Station Depth Elevation
No new snow has been reported.

Earthquake Activity

City Distance Mag. Time & Date
No recent earthquake activity has been reported nearby.
Minimum magnitude displayed is 2.5.

Coastal Water Temperatures

Place Temperature
No Stations Reporting

Nearby Weather Stations